createdAt,value
2023-03-29T00:01:43.832Z,90.14
2023-03-29T00:04:46.184Z,90.03
2023-03-29T00:07:47.977Z,89.74
2023-03-29T00:10:51.938Z,89.62
2023-03-29T00:13:54.225Z,89.82
2023-03-29T00:16:56.782Z,89.81
2023-03-29T00:20:00.100Z,89.72
2023-03-29T00:23:02.155Z,89.63
2023-03-29T00:26:05.939Z,89.43
2023-03-29T00:29:09.654Z,89.30
2023-03-29T00:32:11.791Z,89.51
2023-03-29T00:35:13.802Z,89.59
2023-03-29T00:38:16.470Z,89.64
2023-03-29T00:41:18.365Z,89.52
2023-03-29T00:45:17.435Z,89.37
2023-03-29T00:48:28.303Z,89.86
2023-03-29T00:51:34.465Z,89.31
2023-03-29T00:54:38.085Z,89.34
2023-03-29T00:57:43.449Z,88.88
2023-03-29T01:00:54.253Z,88.83
2023-03-29T01:04:06.654Z,88.47
2023-03-29T01:07:23.029Z,88.04
2023-03-29T01:10:32.699Z,88.07
2023-03-29T01:14:08.252Z,88.18
2023-03-29T01:17:11.107Z,88.56
2023-03-29T01:20:43.559Z,88.61
2023-03-29T01:23:52.584Z,88.86
2023-03-29T01:27:12.675Z,88.73
2023-03-29T01:30:24.928Z,88.41
2023-03-29T01:33:40.884Z,87.94
2023-03-29T01:36:50.280Z,87.62
2023-03-29T01:39:53.085Z,86.97
2023-03-29T01:43:11.015Z,87.24
2023-03-29T01:46:25.650Z,87.13
2023-03-29T01:49:57.035Z,86.91
2023-03-29T01:53:10.058Z,86.88
2023-03-29T01:56:19.784Z,86.54
2023-03-29T01:59:32.391Z,86.94
2023-03-29T02:02:34.980Z,87.22
2023-03-29T02:05:39.961Z,87.25
2023-03-29T02:08:43.675Z,86.81
2023-03-29T02:11:46.135Z,86.87
2023-03-29T02:14:48.073Z,87.08
2023-03-29T02:17:51.166Z,87.32
2023-03-29T02:20:55.898Z,86.85
2023-03-29T02:24:02.192Z,86.69
2023-03-29T02:27:07.511Z,86.83
2023-03-29T02:30:12.149Z,86.37
2023-03-29T02:33:28.734Z,86.41
2023-03-29T02:36:40.774Z,86.48
2023-03-29T02:39:43.061Z,85.90
2023-03-29T02:42:46.203Z,86.06
2023-03-29T02:45:49.169Z,85.67
2023-03-29T02:48:52.208Z,85.56
2023-03-29T02:51:57.451Z,85.69
2023-03-29T02:55:03.129Z,85.97
2023-03-29T02:58:08.845Z,85.42
2023-03-29T03:01:17.629Z,85.81
2023-03-29T03:04:25.586Z,85.87
2023-03-29T03:07:28.788Z,85.98
2023-03-29T03:10:35.331Z,86.03
2023-03-29T03:13:38.700Z,86.12
2023-03-29T03:16:43.365Z,86.43
2023-03-29T03:19:45.447Z,86.63
2023-03-29T03:22:49.118Z,86.34
2023-03-29T03:25:55.363Z,86.35
2023-03-29T03:28:58.342Z,86.84
2023-03-29T03:32:20.091Z,86.56
2023-03-29T03:35:23.960Z,86.44
2023-03-29T03:38:25.841Z,86.18
2023-03-29T03:41:32.782Z,86.65
2023-03-29T03:44:34.674Z,86.33
2023-03-29T03:48:00.085Z,86.96
2023-03-29T03:51:20.232Z,87.11
2023-03-29T03:54:26.988Z,87.20
2023-03-29T03:57:52.695Z,87.66
2023-03-29T04:00:58.165Z,87.36
2023-03-29T04:04:16.656Z,87.34
2023-03-29T04:07:47.736Z,87.68
2023-03-29T04:11:04.742Z,87.53
2023-03-29T04:14:12.162Z,87.56
2023-03-29T04:17:45.226Z,87.75
2023-03-29T04:21:06.139Z,87.39
2023-03-29T04:24:09.793Z,87.58
2023-03-29T04:27:14.528Z,87.76
2023-03-29T04:30:17.084Z,87.63
2023-03-29T04:33:39.578Z,88.19
2023-03-29T04:36:43.672Z,87.68
2023-03-29T04:39:52.617Z,88.21
2023-03-29T04:42:54.632Z,88.25
2023-03-29T04:45:56.669Z,88.47
2023-03-29T04:49:26.089Z,88.47
2023-03-29T04:52:33.231Z,88.55
2023-03-29T04:55:36.890Z,88.37
2023-03-29T04:58:43.386Z,88.67
2023-03-29T05:01:47.354Z,88.89
2023-03-29T05:04:49.634Z,88.84
2023-03-29T05:07:53.054Z,88.65
2023-03-29T05:11:00.296Z,88.85
2023-03-29T05:14:07.395Z,89.62
2023-03-29T05:17:09.689Z,88.84
2023-03-29T05:20:15.031Z,88.84
2023-03-29T05:23:19.404Z,89.05
2023-03-29T05:26:41.241Z,88.86
2023-03-29T05:29:44.846Z,89.46
2023-03-29T05:33:13.229Z,88.73
2023-03-29T05:36:16.884Z,88.51
2023-03-29T05:39:24.262Z,88.50
2023-03-29T05:42:27.463Z,88.29
2023-03-29T05:45:34.024Z,87.32
2023-03-29T05:48:36.562Z,87.15
2023-03-29T05:51:38.474Z,85.93
2023-03-29T05:54:42.615Z,86.23
2023-03-29T05:57:46.748Z,86.44
2023-03-29T06:00:50.259Z,85.36
2023-03-29T06:04:21.818Z,84.39
2023-03-29T06:07:33.718Z,83.36
2023-03-29T06:11:04.573Z,82.75
2023-03-29T06:14:42.142Z,82.97
2023-03-29T06:18:10.396Z,83.34
2023-03-29T06:21:16.056Z,82.83
2023-03-29T06:24:18.226Z,83.05
2023-03-29T06:27:30.606Z,82.20
2023-03-29T06:30:37.791Z,81.08
2023-03-29T06:33:42.093Z,80.60
2023-03-29T06:36:57.738Z,80.68
2023-03-29T06:40:01.067Z,81.02
2023-03-29T06:43:09.810Z,80.46
2023-03-29T06:46:47.117Z,79.58
2023-03-29T06:49:49.940Z,79.13
2023-03-29T06:53:12.054Z,78.90
2023-03-29T06:56:16.134Z,78.87
2023-03-29T06:59:20.874Z,79.25
2023-03-29T07:02:34.714Z,79.87
2023-03-29T07:05:48.340Z,79.76
2023-03-29T07:08:54.521Z,79.83
2023-03-29T07:12:16.900Z,78.65
2023-03-29T07:15:21.469Z,78.77
2023-03-29T07:18:52.824Z,78.88
2023-03-29T07:22:27.284Z,79.38
2023-03-29T07:25:34.468Z,79.36
2023-03-29T07:28:38.970Z,78.87
2023-03-29T07:31:41.648Z,79.19
2023-03-29T07:35:04.529Z,79.16
2023-03-29T07:38:11.823Z,79.93
2023-03-29T07:41:19.727Z,79.51
2023-03-29T07:44:37.572Z,78.86
2023-03-29T07:47:46.807Z,78.92
2023-03-29T07:50:51.817Z,78.24
2023-03-29T07:53:58.319Z,78.41
2023-03-29T07:57:26.822Z,79.14
2023-03-29T08:00:30.863Z,78.92
2023-03-29T08:03:53.384Z,78.67
2023-03-29T08:07:00.008Z,78.42
2023-03-29T08:10:18.383Z,78.54
2023-03-29T08:13:43.607Z,77.13
2023-03-29T08:17:04.985Z,76.98
2023-03-29T08:20:16.324Z,77.21
2023-03-29T08:23:21.300Z,75.87
2023-03-29T08:26:36.043Z,77.02
2023-03-29T08:29:40.118Z,77.71
2023-03-29T08:35:47.070Z,76.83
2023-03-29T08:39:05.928Z,76.63
2023-03-29T08:42:32.463Z,75.84
2023-03-29T08:45:46.312Z,75.82
2023-03-29T08:49:00.445Z,75.38
2023-03-29T08:52:12.333Z,75.57
2023-03-29T08:55:45.999Z,75.18
2023-03-29T08:59:34.738Z,75.69
2023-03-29T09:02:42.967Z,75.82
2023-03-29T09:05:48.360Z,74.87
2023-03-29T09:09:01.389Z,75.32
2023-03-29T09:12:27.978Z,74.54
2023-03-29T09:15:54.154Z,74.40
2023-03-29T09:19:10.876Z,75.19
2023-03-29T09:22:20.005Z,75.39
2023-03-29T09:25:24.987Z,75.57
2023-03-29T09:28:35.820Z,75.13
2023-03-29T09:31:43.589Z,75.06
2023-03-29T09:34:54.864Z,74.98
2023-03-29T09:38:00.255Z,74.89
2023-03-29T09:41:14.798Z,74.66
2023-03-29T09:44:31.127Z,75.01
2023-03-29T09:47:50.314Z,75.22
2023-03-29T09:50:53.301Z,74.70
2023-03-29T09:53:57.340Z,75.25
2023-03-29T09:57:26.375Z,75.77
2023-03-29T10:00:31.090Z,75.42
2023-03-29T10:03:40.194Z,75.48
2023-03-29T10:06:50.446Z,74.55
2023-03-29T10:09:57.164Z,74.39
2023-03-29T10:13:05.550Z,74.35
2023-03-29T10:16:09.906Z,73.93
2023-03-29T10:19:37.472Z,74.14
2023-03-29T10:22:42.522Z,74.12
2023-03-29T10:25:47.418Z,73.95
2023-03-29T10:28:55.022Z,73.78
2023-03-29T10:31:57.243Z,72.50
2023-03-29T10:35:20.242Z,73.41
2023-03-29T10:38:24.712Z,73.27
2023-03-29T10:41:28.148Z,73.29
2023-03-29T10:44:36.746Z,72.72
2023-03-29T10:47:45.510Z,74.10
2023-03-29T10:50:53.066Z,74.14
2023-03-29T10:54:02.616Z,73.89
2023-03-29T10:57:11.596Z,73.57
2023-03-29T11:00:16.921Z,73.73
2023-03-29T11:03:46.131Z,74.22
2023-03-29T11:06:57.398Z,73.92
2023-03-29T11:10:12.963Z,73.50
2023-03-29T11:13:35.877Z,73.37
2023-03-29T11:17:12.894Z,73.46
2023-03-29T11:20:33.527Z,73.28
2023-03-29T11:23:53.725Z,73.47
2023-03-29T11:27:01.342Z,73.68
2023-03-29T11:30:48.426Z,73.65
2023-03-29T11:34:32.660Z,73.83
2023-03-29T11:37:43.464Z,73.36
2023-03-29T11:41:19.801Z,73.87
2023-03-29T11:44:29.989Z,74.39
2023-03-29T11:47:40.252Z,73.90
2023-03-29T11:50:47.822Z,73.54
2023-03-29T11:53:49.644Z,73.42
2023-03-29T11:56:59.772Z,73.79
2023-03-29T12:00:06.026Z,73.81
2023-03-29T12:03:28.663Z,73.53
2023-03-29T12:07:18.771Z,72.84
2023-03-29T12:10:23.718Z,72.62
2023-03-29T12:13:36.908Z,72.51
2023-03-29T12:16:57.540Z,72.85
2023-03-29T12:20:26.965Z,72.29
2023-03-29T12:23:34.651Z,72.52
2023-03-29T12:26:57.553Z,71.99
2023-03-29T12:30:02.610Z,71.95
2023-03-29T12:33:13.026Z,71.96
2023-03-29T12:37:27.141Z,71.69
2023-03-29T12:40:57.396Z,71.41
2023-03-29T12:44:22.601Z,70.98
2023-03-29T12:47:43.256Z,71.14
2023-03-29T12:51:01.180Z,71.21
2023-03-29T12:54:13.493Z,71.35
2023-03-29T12:57:25.980Z,71.09
2023-03-29T13:00:32.859Z,72.06
2023-03-29T13:04:00.869Z,72.02
2023-03-29T13:07:03.282Z,71.89
2023-03-29T13:10:31.552Z,71.94
2023-03-29T13:13:40.118Z,71.58
2023-03-29T13:16:46.172Z,71.60
2023-03-29T13:20:03.509Z,71.02
2023-03-29T13:23:33.259Z,71.76
2023-03-29T13:26:46.443Z,71.96
2023-03-29T13:29:55.045Z,72.56
2023-03-29T13:33:18.722Z,72.02
2023-03-29T13:36:42.324Z,72.59
2023-03-29T13:39:53.574Z,72.72
2023-03-29T13:43:20.495Z,73.09
2023-03-29T13:46:37.625Z,73.14
2023-03-29T13:49:43.917Z,72.46
2023-03-29T13:53:02.232Z,72.86
2023-03-29T13:56:08.452Z,72.74
2023-03-29T13:59:19.082Z,72.08
2023-03-29T14:02:42.022Z,72.68
2023-03-29T14:05:57.161Z,71.85
2023-03-29T14:09:06.419Z,72.06
2023-03-29T14:12:12.474Z,72.33
2023-03-29T14:15:27.769Z,71.93
2023-03-29T14:18:35.054Z,72.05
2023-03-29T14:21:37.619Z,72.13
2023-03-29T14:24:48.106Z,72.26
2023-03-29T14:27:50.050Z,72.38
2023-03-29T14:30:56.132Z,72.37
2023-03-29T14:34:00.464Z,72.61
2023-03-29T14:37:06.748Z,72.77
2023-03-29T14:40:30.924Z,73.13
2023-03-29T14:43:33.067Z,72.83
2023-03-29T14:46:36.630Z,72.89
2023-03-29T14:49:38.909Z,72.65
2023-03-29T14:52:41.475Z,72.71
2023-03-29T14:55:48.883Z,72.77
2023-03-29T14:58:54.531Z,73.52
2023-03-29T15:02:05.307Z,73.54
2023-03-29T15:05:25.602Z,73.34
2023-03-29T15:08:36.432Z,73.32
2023-03-29T15:11:39.843Z,73.26
2023-03-29T15:14:42.068Z,73.79
2023-03-29T15:17:51.705Z,74.05
2023-03-29T15:20:57.067Z,74.24
2023-03-29T15:24:03.227Z,73.89
2023-03-29T15:27:15.259Z,74.10
2023-03-29T15:30:21.711Z,73.90
2023-03-29T15:33:24.888Z,73.73
2023-03-29T15:36:27.251Z,73.91
2023-03-29T15:39:29.989Z,73.65
2023-03-29T15:42:31.913Z,73.93
2023-03-29T15:45:36.463Z,73.81
2023-03-29T15:48:41.811Z,73.88
2023-03-29T15:51:43.891Z,73.91
2023-03-29T15:54:47.840Z,74.32
2023-03-29T15:57:54.205Z,74.27
2023-03-29T16:01:11.248Z,73.97
2023-03-29T16:04:19.122Z,73.97
2023-03-29T16:07:23.346Z,74.34
2023-03-29T16:10:29.617Z,74.52
2023-03-29T16:13:31.425Z,74.12
2023-03-29T16:16:33.322Z,74.42
2023-03-29T16:19:35.350Z,74.44
2023-03-29T16:22:37.436Z,74.75
2023-03-29T16:25:41.124Z,74.64
2023-03-29T16:28:43.608Z,74.61
2023-03-29T16:31:47.522Z,74.58
2023-03-29T16:34:49.680Z,74.38
2023-03-29T16:37:53.763Z,74.92
2023-03-29T16:40:55.976Z,75.17
2023-03-29T16:43:59.045Z,75.05
2023-03-29T16:47:00.895Z,75.28
2023-03-29T16:50:04.135Z,75.34
2023-03-29T16:53:06.095Z,75.30
2023-03-29T16:56:07.995Z,75.36
2023-03-29T16:59:09.977Z,75.38
2023-03-29T17:02:12.019Z,75.61
2023-03-29T17:05:14.272Z,75.35
2023-03-29T17:08:19.073Z,75.49
2023-03-29T17:11:23.319Z,75.22
2023-03-29T17:14:27.809Z,75.43
2023-03-29T17:17:33.973Z,75.60
2023-03-29T17:20:41.733Z,75.61
2023-03-29T17:23:43.651Z,75.78
2023-03-29T17:26:45.991Z,75.83
2023-03-29T17:29:48.091Z,75.41
2023-03-29T17:32:52.462Z,75.48
2023-03-29T17:35:54.422Z,75.51
2023-03-29T17:38:59.236Z,75.42
2023-03-29T17:42:02.674Z,75.46
2023-03-29T17:45:05.155Z,75.74
2023-03-29T17:48:07.014Z,75.45
2023-03-29T17:51:08.924Z,75.54
2023-03-29T17:54:11.234Z,75.44
2023-03-29T17:57:13.271Z,75.31
2023-03-29T18:00:17.094Z,75.71
2023-03-29T18:03:19.036Z,75.53
2023-03-29T18:06:21.079Z,75.70
2023-03-29T18:09:22.993Z,75.77
2023-03-29T18:12:26.256Z,75.93
2023-03-29T18:15:28.188Z,75.68
2023-03-29T18:18:31.943Z,76.26
2023-03-29T18:21:33.861Z,75.81
2023-03-29T18:24:35.735Z,75.94
2023-03-29T18:27:39.667Z,76.14
2023-03-29T18:30:41.933Z,76.08
2023-03-29T18:33:46.836Z,76.44
2023-03-29T18:36:50.573Z,76.13
2023-03-29T18:39:52.368Z,75.99
2023-03-29T18:42:54.265Z,75.80
2023-03-29T18:45:56.487Z,75.75
2023-03-29T18:49:02.165Z,76.06
2023-03-29T18:52:04.895Z,75.74
2023-03-29T18:55:07.418Z,75.78
2023-03-29T18:58:13.441Z,75.93
2023-03-29T19:01:15.745Z,76.34
2023-03-29T19:04:19.624Z,76.29
2023-03-29T19:07:22.670Z,76.49
2023-03-29T19:10:27.512Z,76.32
2023-03-29T19:13:31.892Z,76.39
2023-03-29T19:16:34.150Z,76.37
2023-03-29T19:19:37.808Z,76.32
2023-03-29T19:22:39.832Z,76.26
2023-03-29T19:25:43.414Z,76.68
2023-03-29T19:28:45.664Z,76.39
2023-03-29T19:31:47.747Z,76.49
2023-03-29T19:34:49.614Z,76.46
2023-03-29T19:37:51.699Z,76.44
2023-03-29T19:40:56.694Z,76.34
2023-03-29T19:43:58.632Z,76.64
2023-03-29T19:47:00.617Z,76.43
2023-03-29T19:50:04.777Z,76.59
2023-03-29T19:53:06.694Z,76.96
2023-03-29T19:56:11.043Z,76.78
2023-03-29T19:59:15.088Z,77.09
2023-03-29T20:02:17.408Z,76.85
2023-03-29T20:05:20.247Z,77.13
2023-03-29T20:08:24.835Z,77.11
2023-03-29T20:11:28.923Z,76.80
2023-03-29T20:14:31.012Z,76.89
2023-03-29T20:17:35.552Z,76.89
2023-03-29T20:20:37.474Z,76.94
2023-03-29T20:23:42.372Z,76.63
2023-03-29T20:26:44.258Z,77.15
2023-03-29T20:29:46.633Z,77.06
2023-03-29T20:32:49.885Z,76.70
2023-03-29T20:35:51.855Z,76.73
2023-03-29T20:38:56.284Z,77.01
2023-03-29T20:41:59.129Z,77.36
2023-03-29T20:45:01.459Z,77.36
2023-03-29T20:48:03.733Z,77.33
2023-03-29T20:51:11.166Z,77.41
2023-03-29T20:54:13.014Z,77.64
2023-03-29T20:57:18.087Z,77.61
2023-03-29T21:00:20.369Z,77.70
2023-03-29T21:03:22.364Z,77.56
2023-03-29T21:06:25.029Z,78.15
2023-03-29T21:09:31.099Z,77.78
2023-03-29T21:12:33.047Z,77.80
2023-03-29T21:15:35.275Z,77.83
2023-03-29T21:18:38.784Z,78.17
2023-03-29T21:21:41.711Z,78.35
2023-03-29T21:24:43.738Z,78.53
2023-03-29T21:27:46.083Z,78.30
2023-03-29T21:30:47.981Z,78.26
2023-03-29T21:33:53.234Z,78.31
2023-03-29T21:36:54.980Z,79.07
2023-03-29T21:39:56.898Z,78.87
2023-03-29T21:42:58.775Z,78.74
2023-03-29T21:46:00.899Z,78.88
2023-03-29T21:49:02.911Z,78.72
2023-03-29T21:52:07.359Z,78.82
2023-03-29T21:55:12.360Z,79.37
2023-03-29T21:58:14.262Z,78.90
2023-03-29T22:01:16.351Z,79.54
2023-03-29T22:04:33.233Z,79.19
2023-03-29T22:07:40.728Z,79.23
2023-03-29T22:10:42.568Z,79.23
2023-03-29T22:13:44.549Z,79.39
2023-03-29T22:16:47.193Z,79.51
2023-03-29T22:19:49.751Z,79.54
2023-03-29T22:22:51.537Z,80.49
2023-03-29T22:25:53.426Z,80.35
2023-03-29T22:28:56.850Z,80.28
2023-03-29T22:31:58.701Z,80.62
2023-03-29T22:35:00.691Z,80.39
2023-03-29T22:38:02.599Z,80.62
2023-03-29T22:41:04.883Z,80.78
2023-03-29T22:44:07.223Z,80.92
2023-03-29T22:47:10.286Z,81.09
2023-03-29T22:50:12.125Z,81.68
2023-03-29T22:53:14.429Z,81.06
2023-03-29T22:56:16.940Z,81.09
2023-03-29T22:59:21.260Z,81.01
2023-03-29T23:02:23.087Z,81.87
2023-03-29T23:05:25.378Z,81.48
2023-03-29T23:08:27.219Z,81.45
2023-03-29T23:11:29.066Z,81.70
2023-03-29T23:14:31.047Z,81.64
2023-03-29T23:17:32.951Z,81.20
2023-03-29T23:20:37.922Z,81.63
2023-03-29T23:23:40.326Z,81.60
2023-03-29T23:26:48.214Z,81.07
2023-03-29T23:29:50.184Z,81.39
2023-03-29T23:32:54.617Z,80.84
2023-03-29T23:35:56.907Z,81.37
2023-03-29T23:38:59.660Z,81.19
2023-03-29T23:42:04.240Z,81.55
2023-03-29T23:45:07.989Z,81.23
2023-03-29T23:48:09.886Z,81.13
2023-03-29T23:51:14.076Z,81.19
2023-03-29T23:54:17.283Z,81.29
2023-03-29T23:57:19.581Z,81.06
